Terminal Aerodrome Forecast
Issued by NWS

Home | Current Version | Previous Version | Text Only | Print | Product List | Glossary On
Versions: 1 2 3 4 5 6 7 8 9 10 11 12 13 14 15 16 17 18 19 20 21
000
FTUS46 KSEW 032320
TAFHQM
TAF
KHQM 032320Z 0400/0424 25010KT P6SM SCT025 BKN100
      TEMPO 0400/0404 BKN025 OVC080
     FM040400 27010KT P6SM BKN025 OVC050
     FM041700 30008KT P6SM SCT030 BKN050=

USA.gov is the U.S. government's official web portal to all federal, state and local government web resources and services.